createdAt,value
2018-07-05T00:01:52.972Z,99.90
2018-07-05T00:04:32.694Z,99.90
2018-07-05T00:07:12.429Z,99.90
2018-07-05T00:09:52.070Z,99.90
2018-07-05T00:12:31.765Z,99.90
2018-07-05T00:15:11.426Z,99.90
2018-07-05T00:17:51.005Z,99.90
2018-07-05T00:20:30.986Z,99.90
2018-07-05T00:23:10.791Z,99.90
2018-07-05T00:25:50.778Z,99.90
2018-07-05T00:28:30.372Z,99.90
2018-07-05T00:31:10.008Z,99.90
2018-07-05T00:33:49.659Z,99.90
2018-07-05T00:36:29.274Z,99.90
2018-07-05T00:39:08.867Z,99.90
2018-07-05T00:41:48.681Z,99.90
2018-07-05T00:44:28.330Z,99.90
2018-07-05T00:47:07.870Z,99.90
2018-07-05T00:49:47.611Z,99.90
2018-07-05T00:52:27.455Z,99.90
2018-07-05T00:55:07.259Z,99.90
2018-07-05T00:57:47.379Z,99.90
2018-07-05T01:00:27.083Z,99.90
2018-07-05T01:03:07.271Z,99.90
2018-07-05T01:05:47.202Z,99.90
2018-07-05T01:08:26.857Z,99.90
2018-07-05T01:11:06.535Z,99.90
2018-07-05T01:13:46.254Z,99.90
2018-07-05T01:16:25.978Z,99.90
2018-07-05T01:19:05.793Z,99.90
2018-07-05T01:21:45.554Z,99.90
2018-07-05T01:24:25.222Z,99.90
2018-07-05T01:27:04.942Z,99.90
2018-07-05T01:29:44.735Z,99.90
2018-07-05T01:32:24.455Z,99.90
2018-07-05T01:35:04.144Z,99.90
2018-07-05T01:37:43.883Z,99.90
2018-07-05T01:42:57.225Z,99.90
2018-07-05T01:45:36.982Z,99.90
2018-07-05T01:48:16.603Z,99.90
2018-07-05T01:50:56.265Z,99.90
2018-07-05T01:53:35.959Z,99.90
2018-07-05T01:56:15.689Z,99.90
2018-07-05T01:58:55.422Z,99.90
2018-07-05T02:01:35.128Z,99.90
2018-07-05T02:04:14.943Z,99.90
2018-07-05T02:06:54.619Z,99.90
2018-07-05T02:09:34.428Z,99.90
2018-07-05T02:12:13.995Z,99.90
2018-07-05T02:14:53.763Z,99.90
2018-07-05T02:17:33.536Z,99.90
2018-07-05T02:20:13.141Z,99.90
2018-07-05T02:22:53.243Z,99.90
2018-07-05T02:25:33.218Z,99.90
2018-07-05T02:28:13.194Z,99.90
2018-07-05T02:30:53.071Z,99.90
2018-07-05T02:33:32.640Z,99.90
2018-07-05T02:36:12.623Z,99.90
2018-07-05T02:38:57.533Z,99.90
2018-07-05T02:41:37.307Z,99.90
2018-07-05T02:44:16.842Z,99.90
2018-07-05T02:46:56.582Z,99.90
2018-07-05T02:49:36.140Z,99.90
2018-07-05T02:52:15.773Z,99.90
2018-07-05T02:54:55.516Z,99.90
2018-07-05T02:57:35.484Z,99.90
2018-07-05T03:00:15.243Z,99.90
2018-07-05T03:02:54.934Z,99.90
2018-07-05T03:05:34.708Z,99.90
2018-07-05T03:08:14.386Z,99.90
2018-07-05T03:10:54.106Z,99.90
2018-07-05T03:13:33.849Z,99.90
2018-07-05T03:16:13.583Z,99.90
2018-07-05T03:18:53.287Z,99.90
2018-07-05T03:21:32.826Z,99.90
2018-07-05T03:24:12.556Z,99.90
2018-07-05T03:26:52.605Z,99.90
2018-07-05T03:29:32.284Z,99.90
2018-07-05T03:32:11.898Z,99.90
2018-07-05T03:34:51.515Z,99.90
2018-07-05T03:37:31.414Z,99.90
2018-07-05T03:40:11.526Z,99.90
2018-07-05T03:42:51.654Z,99.90
2018-07-05T03:45:31.670Z,99.90
2018-07-05T03:48:11.685Z,99.90
2018-07-05T03:50:51.582Z,99.90
2018-07-05T03:53:31.675Z,99.90
2018-07-05T03:56:11.318Z,99.90
2018-07-05T03:58:51.156Z,99.90
2018-07-05T04:01:31.108Z,99.90
2018-07-05T04:04:10.850Z,99.90
2018-07-05T04:06:50.898Z,99.90
2018-07-05T04:09:30.929Z,99.90
2018-07-05T04:12:10.673Z,99.90
2018-07-05T04:14:50.306Z,99.90
2018-07-05T04:17:30.008Z,99.90
2018-07-05T04:20:09.699Z,99.90
2018-07-05T04:22:49.479Z,99.90
2018-07-05T04:25:29.751Z,99.90
2018-07-05T04:28:10.322Z,99.90
2018-07-05T04:30:50.046Z,99.90
2018-07-05T04:33:30.203Z,99.90
2018-07-05T04:36:10.689Z,99.90
2018-07-05T04:38:50.726Z,99.90
2018-07-05T04:41:30.968Z,99.90
2018-07-05T04:44:10.929Z,99.90
2018-07-05T04:46:50.638Z,99.90
2018-07-05T04:49:30.471Z,99.90
2018-07-05T04:52:10.306Z,99.90
2018-07-05T04:54:50.191Z,99.90
2018-07-05T04:57:30.079Z,99.90
2018-07-05T05:00:09.603Z,99.90
2018-07-05T05:02:49.417Z,99.90
2018-07-05T05:05:29.034Z,99.90
2018-07-05T05:08:09.008Z,99.90
2018-07-05T05:10:48.836Z,99.90
2018-07-05T05:13:28.396Z,99.90
2018-07-05T05:16:07.996Z,99.90
2018-07-05T05:18:47.649Z,99.90
2018-07-05T05:21:27.231Z,99.90
2018-07-05T05:24:07.106Z,99.90
2018-07-05T05:26:46.745Z,99.90
2018-07-05T05:29:26.511Z,99.90
2018-07-05T05:32:06.486Z,99.90
2018-07-05T05:34:46.634Z,99.90
2018-07-05T05:37:26.371Z,99.90
2018-07-05T05:40:06.212Z,99.90
2018-07-05T05:42:46.051Z,99.90
2018-07-05T05:45:25.917Z,99.90
2018-07-05T05:48:05.657Z,99.90
2018-07-05T05:50:45.299Z,99.90
2018-07-05T05:53:25.343Z,99.90
2018-07-05T05:56:05.107Z,99.90
2018-07-05T05:58:44.807Z,99.90
2018-07-05T06:01:24.600Z,99.90
2018-07-05T06:04:04.410Z,99.90
2018-07-05T06:06:44.151Z,99.90
2018-07-05T06:09:24.280Z,99.90
2018-07-05T06:12:04.028Z,99.90
2018-07-05T06:14:43.810Z,99.90
2018-07-05T06:17:23.503Z,99.90
2018-07-05T06:20:03.259Z,99.90
2018-07-05T06:22:43.172Z,99.90
2018-07-05T06:25:23.042Z,99.90
2018-07-05T06:28:02.767Z,99.90
2018-07-05T06:30:42.480Z,99.90
2018-07-05T06:33:22.563Z,99.90
2018-07-05T06:36:02.731Z,99.90
2018-07-05T06:38:42.812Z,99.90
2018-07-05T06:41:22.661Z,99.90
2018-07-05T06:44:02.606Z,99.90
2018-07-05T06:46:42.649Z,99.90
2018-07-05T06:49:22.604Z,99.90
2018-07-05T06:52:02.237Z,99.90
2018-07-05T06:54:42.032Z,99.90
2018-07-05T06:57:21.690Z,99.90
2018-07-05T07:00:01.427Z,99.90
2018-07-05T07:02:41.193Z,99.90
2018-07-05T07:05:20.821Z,99.90
2018-07-05T07:08:00.543Z,99.90
2018-07-05T07:10:40.211Z,99.90
2018-07-05T07:13:19.990Z,99.90
2018-07-05T07:15:59.818Z,99.90
2018-07-05T07:18:39.692Z,99.90
2018-07-05T07:21:19.475Z,99.90
2018-07-05T07:23:59.473Z,99.90
2018-07-05T07:26:39.292Z,99.90
2018-07-05T07:29:19.051Z,99.90
2018-07-05T07:31:59.169Z,99.90
2018-07-05T07:34:38.719Z,99.90
2018-07-05T07:37:18.299Z,99.90
2018-07-05T07:39:58.359Z,99.90
2018-07-05T07:42:25.707Z,99.90
2018-07-05T07:44:53.037Z,99.90
2018-07-05T07:47:20.386Z,99.90
2018-07-05T07:49:47.712Z,99.90
2018-07-05T07:52:15.061Z,99.90
2018-07-05T07:54:42.402Z,99.90
2018-07-05T07:57:09.769Z,99.90
2018-07-05T07:59:37.100Z,99.90
2018-07-05T08:02:04.458Z,99.90
2018-07-05T08:04:31.778Z,99.90
2018-07-05T08:06:59.131Z,99.90
2018-07-05T08:09:26.716Z,99.90
2018-07-05T08:11:54.305Z,99.90
2018-07-05T08:14:21.656Z,99.90
2018-07-05T08:16:49.215Z,99.90
2018-07-05T08:19:16.839Z,99.90
2018-07-05T08:21:44.159Z,99.90
2018-07-05T08:24:11.617Z,99.90
2018-07-05T08:26:38.947Z,99.90
2018-07-05T08:29:06.651Z,99.90
2018-07-05T08:31:33.995Z,99.90
2018-07-05T08:34:01.351Z,99.90
2018-07-05T08:36:29.033Z,99.90
2018-07-05T08:38:56.387Z,99.90
2018-07-05T08:41:24.008Z,99.90
2018-07-05T08:43:51.758Z,99.90
2018-07-05T08:46:19.323Z,99.90
2018-07-05T08:48:46.672Z,99.90
2018-07-05T08:51:14.068Z,97.70
2018-07-05T08:53:41.711Z,97.70
2018-07-05T08:56:09.047Z,98.00
2018-07-05T08:58:36.367Z,97.40
2018-07-05T09:01:03.725Z,97.00
2018-07-05T09:03:31.424Z,96.60
2018-07-05T09:05:58.794Z,96.90
2018-07-05T09:08:26.127Z,95.50
2018-07-05T09:10:53.474Z,94.80
2018-07-05T09:13:20.808Z,95.10
2018-07-05T09:15:48.176Z,95.10
2018-07-05T09:18:15.954Z,94.80
2018-07-05T09:20:43.248Z,94.60
2018-07-05T09:23:10.647Z,94.50
2018-07-05T09:25:37.973Z,94.40
2018-07-05T09:28:05.297Z,94.10
2018-07-05T09:30:32.656Z,93.90
2018-07-05T09:32:59.980Z,93.90
2018-07-05T09:35:27.416Z,92.80
2018-07-05T09:40:22.650Z,92.60
2018-07-05T09:42:50.002Z,92.60
2018-07-05T09:45:17.369Z,91.60
2018-07-05T09:47:44.687Z,91.20
2018-07-05T09:52:45.977Z,91.00
2018-07-05T09:55:13.319Z,91.50
2018-07-05T09:57:40.654Z,92.80
2018-07-05T10:00:10.983Z,92.90
2018-07-05T10:02:38.966Z,91.80
2018-07-05T10:05:06.571Z,91.50
2018-07-05T10:07:34.474Z,92.40
2018-07-05T10:10:02.226Z,92.30
2018-07-05T10:12:30.092Z,91.10
2018-07-05T10:14:57.425Z,90.60
2018-07-05T10:17:24.772Z,90.10
2018-07-05T10:19:52.099Z,88.80
2018-07-05T10:22:19.503Z,87.50
2018-07-05T10:24:46.834Z,86.80
2018-07-05T10:27:14.205Z,87.20
2018-07-05T10:29:53.952Z,86.40
2018-07-05T10:32:34.114Z,87.20
2018-07-05T10:35:01.444Z,88.00
2018-07-05T10:37:28.822Z,88.00
2018-07-05T10:40:08.559Z,86.30
2018-07-05T10:42:48.465Z,84.70
2018-07-05T10:45:28.156Z,85.40
2018-07-05T10:48:07.960Z,84.80
2018-07-05T10:50:47.627Z,84.30
2018-07-05T10:53:27.382Z,86.50
2018-07-05T10:56:07.099Z,86.70
2018-07-05T10:58:46.953Z,85.80
2018-07-05T11:01:26.783Z,86.10
2018-07-05T11:04:06.880Z,86.80
2018-07-05T11:06:46.669Z,85.60
2018-07-05T11:09:26.322Z,86.20
2018-07-05T11:12:06.063Z,87.40
2018-07-05T11:14:45.856Z,86.00
2018-07-05T11:17:25.548Z,86.90
2018-07-05T11:20:05.294Z,86.90
2018-07-05T11:22:45.140Z,86.20
2018-07-05T11:25:24.859Z,83.70
2018-07-05T11:28:04.642Z,83.70
2018-07-05T11:30:44.351Z,84.90
2018-07-05T11:33:24.221Z,83.80
2018-07-05T11:36:04.000Z,85.70
2018-07-05T11:38:43.611Z,85.90
2018-07-05T11:41:23.334Z,87.40
2018-07-05T11:44:03.095Z,87.40
2018-07-05T11:46:42.960Z,88.40
2018-07-05T11:49:22.970Z,88.50
2018-07-05T11:52:03.198Z,88.70
2018-07-05T11:54:43.959Z,87.80
2018-07-05T11:57:23.740Z,88.10
2018-07-05T12:00:03.573Z,88.60
2018-07-05T12:02:43.605Z,86.60
2018-07-05T12:05:23.407Z,86.20
2018-07-05T12:08:03.349Z,86.90
2018-07-05T12:10:43.247Z,88.40
2018-07-05T12:13:22.967Z,87.30
2018-07-05T12:16:02.727Z,88.60
2018-07-05T12:18:42.429Z,87.70
2018-07-05T12:21:22.052Z,87.00
2018-07-05T12:24:02.227Z,89.40
2018-07-05T12:26:41.964Z,90.00
2018-07-05T12:29:22.634Z,90.00
2018-07-05T12:32:02.564Z,90.20
2018-07-05T12:34:42.216Z,90.60
2018-07-05T12:37:22.648Z,90.80
2018-07-05T12:40:02.424Z,90.90
2018-07-05T12:42:42.210Z,91.20
2018-07-05T12:45:21.985Z,90.90
2018-07-05T12:48:02.335Z,90.60
2018-07-05T12:50:42.352Z,91.10
2018-07-05T12:53:22.047Z,91.10
2018-07-05T12:56:03.325Z,91.40
2018-07-05T12:58:42.951Z,92.10
2018-07-05T13:01:22.986Z,91.90
2018-07-05T13:04:02.694Z,91.70
2018-07-05T13:06:42.775Z,91.50
2018-07-05T13:09:22.659Z,92.00
2018-07-05T13:12:02.459Z,91.10
2018-07-05T13:14:42.301Z,90.70
2018-07-05T13:17:22.109Z,87.70
2018-07-05T13:20:02.144Z,87.80
2018-07-05T13:22:42.010Z,85.10
2018-07-05T13:25:21.806Z,85.20
2018-07-05T13:28:01.708Z,85.30
2018-07-05T13:30:41.479Z,85.60
2018-07-05T13:33:21.336Z,85.00
2018-07-05T13:36:01.059Z,86.40
2018-07-05T13:38:40.689Z,87.20
2018-07-05T13:41:21.267Z,86.70
2018-07-05T13:44:01.223Z,87.80
2018-07-05T13:46:40.993Z,88.10
2018-07-05T13:49:20.744Z,89.10
2018-07-05T13:52:00.515Z,89.40
2018-07-05T13:54:40.735Z,88.60
2018-07-05T13:57:20.758Z,88.70
2018-07-05T14:00:00.590Z,88.70
2018-07-05T14:02:40.458Z,89.10
2018-07-05T14:05:20.204Z,88.70
2018-07-05T14:08:00.288Z,88.70
2018-07-05T14:10:39.982Z,90.10
2018-07-05T14:13:19.649Z,91.10
2018-07-05T14:15:59.439Z,91.40
2018-07-05T14:18:39.135Z,91.30
2018-07-05T14:21:18.959Z,92.00
2018-07-05T14:23:58.614Z,92.20
2018-07-05T14:26:38.264Z,92.40
2018-07-05T14:29:18.406Z,91.80
2018-07-05T14:31:58.131Z,91.70
2018-07-05T14:34:38.114Z,92.00
2018-07-05T14:37:17.916Z,91.40
2018-07-05T14:39:57.997Z,91.60
2018-07-05T14:42:38.100Z,91.40
2018-07-05T14:45:18.312Z,91.60
2018-07-05T14:47:58.037Z,92.50
2018-07-05T14:50:37.939Z,92.70
2018-07-05T14:53:17.637Z,92.70
2018-07-05T14:55:58.298Z,92.50
2018-07-05T14:58:38.067Z,93.00
2018-07-05T15:01:17.891Z,92.80
2018-07-05T15:03:57.525Z,93.20
2018-07-05T15:06:37.191Z,93.30
2018-07-05T15:09:16.824Z,92.90
2018-07-05T15:11:56.479Z,93.20
2018-07-05T15:14:36.271Z,93.50
2018-07-05T15:17:16.098Z,93.30
2018-07-05T15:19:55.772Z,92.50
2018-07-05T15:22:35.780Z,91.60
2018-07-05T15:25:15.562Z,91.00
2018-07-05T15:27:55.563Z,91.30
2018-07-05T15:30:35.599Z,91.40
2018-07-05T15:33:15.421Z,90.10
2018-07-05T15:35:55.114Z,90.10
2018-07-05T15:38:34.865Z,86.90
2018-07-05T15:41:14.629Z,86.70
2018-07-05T15:43:54.306Z,85.60
2018-07-05T15:46:34.236Z,84.40
2018-07-05T15:49:13.842Z,84.20
2018-07-05T15:51:53.779Z,83.30
2018-07-05T15:54:33.557Z,83.60
2018-07-05T15:57:13.611Z,83.80
2018-07-05T15:59:53.335Z,84.30
2018-07-05T16:02:33.191Z,83.80
2018-07-05T16:05:12.800Z,84.30
2018-07-05T16:07:52.675Z,85.40
2018-07-05T16:10:32.626Z,86.80
2018-07-05T16:13:12.240Z,90.00
2018-07-05T16:15:51.967Z,90.30
2018-07-05T16:18:31.638Z,89.70
2018-07-05T16:21:11.501Z,90.10
2018-07-05T16:23:51.225Z,91.00
2018-07-05T16:26:30.996Z,91.10
2018-07-05T16:29:10.899Z,90.90
2018-07-05T16:31:50.863Z,91.60
2018-07-05T16:34:31.340Z,92.00
2018-07-05T16:37:11.108Z,92.40
2018-07-05T16:39:50.787Z,92.90
2018-07-05T16:42:30.615Z,94.40
2018-07-05T16:45:10.314Z,94.60
2018-07-05T16:47:50.094Z,95.10
2018-07-05T16:50:29.887Z,95.30
2018-07-05T16:53:09.757Z,95.50
2018-07-05T16:55:49.566Z,95.50
2018-07-05T16:58:29.335Z,95.30
2018-07-05T17:01:09.014Z,95.40
2018-07-05T17:03:48.802Z,95.40
2018-07-05T17:06:28.413Z,95.30
2018-07-05T17:09:08.404Z,95.30
2018-07-05T17:11:48.211Z,95.60
2018-07-05T17:14:27.975Z,95.80
2018-07-05T17:17:07.685Z,95.90
2018-07-05T17:19:47.636Z,95.90
2018-07-05T17:22:27.318Z,96.00
2018-07-05T17:25:07.174Z,96.10
2018-07-05T17:27:46.881Z,96.20
2018-07-05T17:30:26.523Z,96.20
2018-07-05T17:33:06.261Z,96.80
2018-07-05T17:35:45.834Z,96.50
2018-07-05T17:38:25.387Z,96.60
2018-07-05T17:41:05.307Z,96.30
2018-07-05T17:43:45.044Z,96.50
2018-07-05T17:46:25.132Z,96.50
2018-07-05T17:49:04.815Z,96.50
2018-07-05T17:51:44.404Z,96.70
2018-07-05T17:54:24.124Z,96.80
2018-07-05T17:57:03.840Z,97.00
2018-07-05T17:59:43.598Z,97.00
2018-07-05T18:02:23.256Z,97.20
2018-07-05T18:05:02.861Z,97.40
2018-07-05T18:07:42.581Z,98.30
2018-07-05T18:10:22.672Z,98.80
2018-07-05T18:13:02.572Z,98.90
2018-07-05T18:15:42.501Z,98.70
2018-07-05T18:18:22.291Z,98.20
2018-07-05T18:21:02.256Z,98.10
2018-07-05T18:23:41.890Z,98.00
2018-07-05T18:26:21.538Z,98.20
2018-07-05T18:29:01.246Z,98.00
2018-07-05T18:31:41.502Z,98.00
2018-07-05T18:34:21.351Z,98.00
2018-07-05T18:37:02.043Z,98.30
2018-07-05T18:39:42.059Z,98.50
2018-07-05T18:42:21.899Z,98.90
2018-07-05T18:45:02.295Z,99.10
2018-07-05T18:47:42.348Z,99.40
2018-07-05T18:50:22.235Z,99.20
2018-07-05T18:53:02.175Z,99.80
2018-07-05T18:55:41.909Z,99.90
2018-07-05T18:58:21.701Z,99.90
2018-07-05T19:01:01.477Z,99.90
2018-07-05T19:03:41.234Z,99.90
2018-07-05T19:06:20.936Z,99.90
2018-07-05T19:09:00.935Z,99.90
2018-07-05T19:11:40.935Z,99.90
2018-07-05T19:14:20.787Z,99.90
2018-07-05T19:17:00.912Z,99.90
2018-07-05T19:19:40.647Z,99.90
2018-07-05T19:22:20.347Z,99.90
2018-07-05T19:25:00.122Z,99.90
2018-07-05T19:27:39.763Z,99.90
2018-07-05T19:30:19.431Z,99.90
2018-07-05T19:32:59.228Z,99.90
2018-07-05T19:35:39.014Z,99.90
2018-07-05T19:38:18.720Z,99.90
2018-07-05T19:40:58.524Z,99.90
2018-07-05T19:43:38.883Z,99.90
2018-07-05T19:46:18.995Z,99.90
2018-07-05T19:48:58.693Z,99.90
2018-07-05T19:51:38.418Z,99.90
2018-07-05T19:54:18.125Z,99.90
2018-07-05T19:56:58.057Z,99.90
2018-07-05T19:59:37.847Z,99.90
2018-07-05T20:02:17.981Z,99.90
2018-07-05T20:04:57.915Z,99.90
2018-07-05T20:07:37.832Z,99.90
2018-07-05T20:10:17.994Z,99.90
2018-07-05T20:12:57.682Z,99.90
2018-07-05T20:15:37.651Z,99.90
2018-07-05T20:18:17.391Z,99.90
2018-07-05T20:20:57.371Z,99.90
2018-07-05T20:23:37.275Z,99.90
2018-07-05T20:26:17.257Z,99.90
2018-07-05T20:28:56.939Z,99.90
2018-07-05T20:31:41.217Z,99.90
2018-07-05T20:34:21.080Z,99.90
2018-07-05T20:37:01.185Z,99.90
2018-07-05T20:39:40.918Z,99.90
2018-07-05T20:42:20.795Z,99.90
2018-07-05T20:45:00.377Z,99.90
2018-07-05T20:47:40.456Z,99.90
2018-07-05T20:50:20.462Z,99.90
2018-07-05T20:53:00.580Z,99.90
2018-07-05T20:55:40.786Z,99.90
2018-07-05T20:58:20.451Z,99.90
2018-07-05T21:01:00.100Z,99.90
2018-07-05T21:03:39.950Z,99.90
2018-07-05T21:06:19.777Z,99.90
2018-07-05T21:08:59.556Z,99.90
2018-07-05T21:11:39.284Z,99.90
2018-07-05T21:14:19.155Z,99.90
2018-07-05T21:16:59.063Z,99.90
2018-07-05T21:19:38.972Z,99.90
2018-07-05T21:22:18.600Z,99.90
2018-07-05T21:24:58.295Z,99.90
2018-07-05T21:27:38.030Z,99.90
2018-07-05T21:30:17.815Z,99.90
2018-07-05T21:32:57.586Z,99.90
2018-07-05T21:35:37.284Z,99.90
2018-07-05T21:38:16.974Z,99.90
2018-07-05T21:40:56.843Z,99.90
2018-07-05T21:43:36.467Z,99.90
2018-07-05T21:46:16.562Z,99.90
2018-07-05T21:48:56.470Z,99.90
2018-07-05T21:51:36.243Z,99.90
2018-07-05T21:54:15.976Z,99.90
2018-07-05T21:56:55.804Z,99.90
2018-07-05T21:59:35.466Z,99.90
2018-07-05T22:02:15.056Z,99.90
2018-07-05T22:04:54.914Z,99.90
2018-07-05T22:07:34.574Z,99.90
2018-07-05T22:10:14.446Z,99.90
2018-07-05T22:12:54.061Z,99.90
2018-07-05T22:15:34.023Z,99.90
2018-07-05T22:18:19.103Z,99.90
2018-07-05T22:21:05.025Z,99.90
2018-07-05T22:23:50.206Z,99.90
2018-07-05T22:26:32.355Z,99.90
2018-07-05T22:29:17.665Z,99.90
2018-07-05T22:31:58.789Z,99.90
2018-07-05T22:34:38.887Z,99.90
2018-07-05T22:37:19.081Z,99.90
2018-07-05T22:39:58.844Z,99.90
2018-07-05T22:42:38.638Z,99.90
2018-07-05T22:45:18.743Z,99.90
2018-07-05T22:47:58.570Z,99.90
2018-07-05T22:50:38.202Z,99.90
2018-07-05T22:53:17.919Z,99.90
2018-07-05T22:55:57.705Z,99.90
2018-07-05T22:58:37.455Z,99.90
2018-07-05T23:01:17.064Z,99.90
2018-07-05T23:03:57.659Z,99.90
2018-07-05T23:06:37.548Z,99.90
2018-07-05T23:09:17.655Z,99.90
2018-07-05T23:11:57.458Z,99.90
2018-07-05T23:14:37.384Z,99.90
2018-07-05T23:17:17.093Z,99.90
2018-07-05T23:19:56.807Z,99.90
2018-07-05T23:22:36.471Z,99.90
2018-07-05T23:25:16.103Z,99.90
2018-07-05T23:27:55.847Z,99.90
2018-07-05T23:30:35.900Z,99.90
2018-07-05T23:33:15.751Z,99.90
2018-07-05T23:35:55.441Z,99.90
2018-07-05T23:38:35.164Z,99.90
2018-07-05T23:41:15.120Z,99.90
2018-07-05T23:43:54.866Z,99.90
2018-07-05T23:46:34.499Z,99.90
2018-07-05T23:49:14.157Z,99.90
2018-07-05T23:51:53.886Z,99.90
2018-07-05T23:54:33.691Z,99.90
2018-07-05T23:57:13.383Z,99.90
2018-07-05T23:59:53.171Z,99.90
